| Date | Time | Temp. (oF) | Dew Point (oF) | Rel. Hum. (%) | Press. (in.) | Wind Dir. | Wind Speed (mph) | Hourly Rainfall (in.) |
|
|---|---|---|---|---|---|---|---|---|---|
| 1 | 03/03 | 00:00 | 42 | 41 | 100 | 29.69 | E | 8 | 0.00 |
| 2 | 03/02 | 23:00 | 41 | 41 | 100 | 29.77 | ENE | 3 | 0.08 |
| 3 | 03/02 | 22:00 | 41 | 41 | 100 | 29.80 | SE | 3 | 0.01 |
| 4 | 03/02 | 21:00 | 41 | 41 | 100 | 29.80 | SE | 6 | 0.00 |
| 5 | 03/02 | 20:00 | 41 | 41 | 100 | 29.83 | E | 7 | 0.01 |
| 6 | 03/02 | 19:00 | 41 | 40 | 99 | 29.85 | E | 9 | 0.00 |
| 7 | 03/02 | 18:00 | 42 | 39 | 91 | 29.88 | ESE | 5 | 0.00 |
| 8 | 03/02 | 17:00 | 44 | 40 | 89 | 29.91 | E | 6 | 0.00 |
| 9 | 03/02 | 16:00 | 45 | 41 | 86 | 29.93 | SE | 13 | 0.00 |
| 10 | 03/02 | 15:00 | 46 | 40 | 82 | 29.96 | SSE | 4 | 0.00 |
| 11 | 03/02 | 14:00 | 48 | 39 | 72 | 29.96 | ESE | 5 | 0.00 |
| 12 | 03/02 | 13:00 | 47 | 35 | 63 | 29.97 | SSE | 5 | 0.00 |
| 13 | 03/02 | 12:00 | 48 | 33 | 57 | 30.00 | SE | 10 | 0.00 |
| 14 | 03/02 | 11:00 | 46 | 33 | 62 | 30.05 | ESE | 7 | 0.00 |
| 15 | 03/02 | 10:00 | 45 | 35 | 70 | 30.06 | SSE | 7 | 0.00 |
| 16 | 03/02 | 09:00 | 41 | 36 | 84 | 30.07 | SSE | 1 | 0.00 |
| 17 | 03/02 | 08:00 | 31 | 31 | 100 | 30.07 | N | 2 | 0.00 |
| 18 | 03/02 | 07:00 | 29 | 28 | 100 | 30.06 | SSE | 0 | 0.00 |
| 19 | 03/02 | 06:00 | 28 | 27 | 100 | 30.05 | NNE | 0 | 0.00 |
| 20 | 03/02 | 05:00 | 30 | 30 | 100 | 30.03 | NE | 1 | 0.00 |
| 21 | 03/02 | 04:00 | 30 | 30 | 100 | 30.01 | SE | 2 | 0.00 |
| 22 | 03/02 | 03:00 | 32 | 31 | 97 | 30.00 | NNE | 2 | 0.00 |
| 23 | 03/02 | 02:00 | 35 | 30 | 84 | 30.00 | SW | 0 | 0.00 |
| 24 | 03/02 | 01:00 | 38 | 30 | 74 | 29.99 | N | 3 | 0.00 |